createdAt,value
2018-03-14T00:00:20.188Z,95.50
2018-03-14T00:02:46.714Z,94.90
2018-03-14T00:05:13.350Z,94.60
2018-03-14T00:07:39.854Z,94.30
2018-03-14T00:10:07.182Z,93.70
2018-03-14T00:12:39.735Z,93.70
2018-03-14T00:15:06.317Z,93.90
2018-03-14T00:17:32.781Z,94.10
2018-03-14T00:19:59.432Z,95.00
2018-03-14T00:22:33.070Z,94.90
2018-03-14T00:24:59.666Z,95.00
2018-03-14T00:27:26.207Z,94.80
2018-03-14T00:29:52.702Z,94.70
2018-03-14T00:32:19.214Z,94.50
2018-03-14T00:34:45.841Z,94.20
2018-03-14T00:37:13.189Z,93.60
2018-03-14T00:39:39.708Z,93.60
2018-03-14T00:42:06.164Z,93.10
2018-03-14T00:44:32.986Z,92.20
2018-03-14T00:46:59.472Z,92.20
2018-03-14T00:49:25.996Z,92.00
2018-03-14T00:51:53.314Z,92.30
2018-03-14T00:54:19.851Z,92.20
2018-03-14T00:56:46.367Z,92.40
2018-03-14T00:59:12.890Z,92.70
2018-03-14T01:01:40.258Z,92.30
2018-03-14T01:04:06.788Z,92.40
2018-03-14T01:06:33.373Z,92.60
2018-03-14T01:08:59.852Z,92.30
2018-03-14T01:11:26.604Z,92.80
2018-03-14T01:13:53.163Z,92.80
2018-03-14T01:16:19.673Z,92.90
2018-03-14T01:18:46.153Z,93.20
2018-03-14T01:21:12.713Z,93.20
2018-03-14T01:23:39.921Z,92.90
2018-03-14T01:26:06.580Z,92.80
2018-03-14T01:28:33.076Z,92.80
2018-03-14T01:30:59.612Z,92.30
2018-03-14T01:33:26.117Z,92.50
2018-03-14T01:35:52.583Z,92.30
2018-03-14T01:38:19.019Z,92.20
2018-03-14T01:40:45.641Z,92.20
2018-03-14T01:43:12.081Z,92.30
2018-03-14T01:45:38.574Z,92.30
2018-03-14T01:48:05.097Z,92.30
2018-03-14T01:50:31.773Z,92.30
2018-03-14T01:56:02.188Z,92.40
2018-03-14T01:58:28.663Z,92.60
2018-03-14T02:00:55.145Z,92.60
2018-03-14T02:03:21.688Z,92.30
2018-03-14T02:05:48.231Z,92.30
2018-03-14T02:08:14.753Z,92.50
2018-03-14T02:10:42.038Z,92.30
2018-03-14T02:13:08.540Z,92.20
2018-03-14T02:15:35.096Z,92.20
2018-03-14T02:18:01.569Z,92.30
2018-03-14T02:20:28.165Z,92.30
2018-03-14T02:22:54.718Z,92.30
2018-03-14T02:25:21.261Z,92.30
2018-03-14T02:27:47.869Z,92.20
2018-03-14T02:30:14.423Z,92.10
2018-03-14T02:32:40.982Z,92.00
2018-03-14T02:35:07.493Z,92.30
2018-03-14T02:37:34.755Z,92.00
2018-03-14T02:40:01.233Z,92.00
2018-03-14T02:42:27.832Z,92.30
2018-03-14T02:44:54.370Z,92.30
2018-03-14T02:47:20.824Z,91.70
2018-03-14T02:49:47.360Z,91.70
2018-03-14T02:52:13.925Z,91.80
2018-03-14T02:54:40.392Z,91.80
2018-03-14T02:57:06.963Z,91.70
2018-03-14T02:59:33.723Z,92.00
2018-03-14T03:02:00.221Z,91.90
2018-03-14T03:04:26.749Z,92.00
2018-03-14T03:06:53.281Z,91.60
2018-03-14T03:09:19.809Z,91.90
2018-03-14T03:11:46.298Z,91.80
2018-03-14T03:14:12.757Z,91.80
2018-03-14T03:16:39.306Z,92.00
2018-03-14T03:19:05.796Z,91.80
2018-03-14T03:21:32.285Z,91.70
2018-03-14T03:24:00.142Z,91.80
2018-03-14T03:26:26.685Z,91.70
2018-03-14T03:28:53.152Z,91.90
2018-03-14T03:31:19.673Z,91.50
2018-03-14T03:33:46.493Z,90.80
2018-03-14T03:36:12.987Z,90.80
2018-03-14T03:38:39.439Z,90.80
2018-03-14T03:41:05.920Z,90.70
2018-03-14T03:43:32.483Z,90.80
2018-03-14T03:45:59.018Z,91.00
2018-03-14T03:48:26.399Z,90.90
2018-03-14T03:50:52.888Z,90.80
2018-03-14T03:53:20.154Z,90.90
2018-03-14T03:55:47.434Z,91.20
2018-03-14T03:58:13.913Z,91.20
2018-03-14T04:00:40.422Z,91.50
2018-03-14T04:03:06.950Z,90.80
2018-03-14T04:05:33.416Z,90.70
2018-03-14T04:07:59.879Z,90.80
2018-03-14T04:10:27.094Z,91.00
2018-03-14T04:12:53.606Z,90.90
2018-03-14T04:15:20.043Z,91.10
2018-03-14T04:17:47.318Z,91.00
2018-03-14T04:20:13.784Z,91.00
2018-03-14T04:22:40.255Z,90.60
2018-03-14T04:25:06.743Z,90.40
2018-03-14T04:27:33.271Z,90.60
2018-03-14T04:29:59.788Z,90.40
2018-03-14T04:32:27.003Z,90.60
2018-03-14T04:34:53.505Z,90.60
2018-03-14T04:37:20.014Z,90.60
2018-03-14T04:39:46.589Z,90.80
2018-03-14T04:42:13.079Z,90.40
2018-03-14T04:44:39.579Z,90.80
2018-03-14T04:47:06.016Z,90.90
2018-03-14T04:49:32.482Z,90.60
2018-03-14T04:51:58.924Z,90.40
2018-03-14T04:54:26.324Z,90.70
2018-03-14T04:56:53.618Z,90.30
2018-03-14T04:59:20.066Z,90.30
2018-03-14T05:01:46.570Z,90.10
2018-03-14T05:04:13.024Z,90.10
2018-03-14T05:06:39.521Z,90.30
2018-03-14T05:09:06.022Z,90.30
2018-03-14T05:11:32.545Z,90.20
2018-03-14T05:13:59.055Z,90.10
2018-03-14T05:16:25.510Z,90.20
2018-03-14T05:18:52.882Z,89.30
2018-03-14T05:21:20.099Z,89.30
2018-03-14T05:23:46.588Z,89.20
2018-03-14T05:26:13.815Z,89.50
2018-03-14T05:28:40.433Z,89.50
2018-03-14T05:31:06.898Z,89.50
2018-03-14T05:33:33.373Z,89.40
2018-03-14T05:35:59.910Z,90.00
2018-03-14T05:38:28.346Z,90.10
2018-03-14T05:40:54.965Z,90.20
2018-03-14T05:43:21.451Z,89.90
2018-03-14T05:45:48.096Z,90.20
2018-03-14T05:48:14.654Z,91.00
2018-03-14T05:50:41.285Z,91.70
2018-03-14T05:53:07.700Z,91.60
2018-03-14T05:55:34.185Z,91.70
2018-03-14T05:58:01.386Z,91.40
2018-03-14T06:00:27.968Z,91.40
2018-03-14T06:02:54.410Z,91.40
2018-03-14T06:05:20.982Z,91.50
2018-03-14T06:07:47.404Z,91.10
2018-03-14T06:10:14.594Z,91.30
2018-03-14T06:12:41.153Z,91.30
2018-03-14T06:15:07.711Z,91.20
2018-03-14T06:17:34.356Z,90.90
2018-03-14T06:20:00.896Z,90.90
2018-03-14T06:22:27.385Z,91.10
2018-03-14T06:24:53.873Z,91.00
2018-03-14T06:27:20.401Z,91.20
2018-03-14T06:29:46.986Z,91.00
2018-03-14T06:32:13.657Z,90.80
2018-03-14T06:34:40.121Z,91.00
2018-03-14T06:37:07.387Z,90.70
2018-03-14T06:39:33.861Z,90.70
2018-03-14T06:42:00.354Z,91.10
2018-03-14T06:44:27.525Z,91.30
2018-03-14T06:46:54.808Z,91.50
2018-03-14T06:49:21.985Z,91.50
2018-03-14T06:51:48.542Z,91.50
2018-03-14T06:54:15.897Z,91.20
2018-03-14T06:56:43.255Z,91.00
2018-03-14T06:59:22.652Z,91.10
2018-03-14T07:02:01.145Z,91.10
2018-03-14T07:04:39.691Z,91.30
2018-03-14T07:07:06.306Z,91.30
2018-03-14T07:09:33.590Z,91.40
2018-03-14T07:12:00.041Z,91.40
2018-03-14T07:14:26.533Z,91.20
2018-03-14T07:16:53.569Z,91.10
2018-03-14T07:19:20.630Z,91.30
2018-03-14T07:21:47.356Z,91.30
2018-03-14T07:24:14.189Z,91.10
2018-03-14T07:26:40.730Z,90.70
2018-03-14T07:29:08.207Z,90.40
2018-03-14T07:31:35.710Z,90.80
2018-03-14T07:34:04.043Z,90.00
2018-03-14T07:36:31.731Z,90.00
2018-03-14T07:38:58.318Z,90.30
2018-03-14T07:41:25.663Z,90.30
2018-03-14T07:43:52.289Z,90.30
2018-03-14T07:46:18.793Z,90.40
2018-03-14T07:48:45.525Z,89.80
2018-03-14T07:51:12.189Z,89.40
2018-03-14T07:53:39.398Z,89.00
2018-03-14T07:56:05.935Z,88.80
2018-03-14T07:58:33.761Z,89.10
2018-03-14T08:01:00.447Z,89.10
2018-03-14T08:03:27.253Z,89.10
2018-03-14T08:05:54.812Z,89.60
2018-03-14T08:08:27.171Z,89.50
2018-03-14T08:10:54.648Z,88.40
2018-03-14T08:13:21.949Z,88.90
2018-03-14T08:15:48.478Z,88.70
2018-03-14T08:18:15.000Z,89.40
2018-03-14T08:20:41.581Z,89.90
2018-03-14T08:23:08.189Z,89.70
2018-03-14T08:25:34.782Z,90.20
2018-03-14T08:28:01.277Z,90.00
2018-03-14T08:30:27.846Z,88.50
2018-03-14T08:32:55.085Z,89.20
2018-03-14T08:35:21.622Z,89.20
2018-03-14T08:37:48.241Z,88.90
2018-03-14T08:40:14.819Z,89.10
2018-03-14T08:42:41.340Z,90.00
2018-03-14T08:45:08.717Z,90.40
2018-03-14T08:47:35.259Z,90.30
2018-03-14T08:50:01.879Z,90.20
2018-03-14T08:52:28.408Z,90.00
2018-03-14T08:54:54.887Z,88.80
2018-03-14T08:57:21.463Z,89.40
2018-03-14T08:59:48.071Z,89.80
2018-03-14T09:02:15.613Z,89.20
2018-03-14T09:04:42.287Z,88.50
2018-03-14T09:07:09.276Z,88.40
2018-03-14T09:09:36.923Z,87.50
2018-03-14T09:12:04.338Z,87.30
2018-03-14T09:14:30.904Z,87.30
2018-03-14T09:16:57.461Z,87.00
2018-03-14T09:19:24.101Z,88.00
2018-03-14T09:21:51.357Z,87.60
2018-03-14T09:24:18.069Z,87.50
2018-03-14T09:26:44.682Z,87.20
2018-03-14T09:29:11.456Z,87.20
2018-03-14T09:31:38.835Z,86.80
2018-03-14T09:34:06.552Z,86.80
2018-03-14T09:36:33.205Z,86.70
2018-03-14T09:38:59.790Z,87.10
2018-03-14T09:41:26.301Z,85.80
2018-03-14T09:43:52.834Z,85.10
2018-03-14T09:46:19.332Z,86.10
2018-03-14T09:48:46.014Z,87.90
2018-03-14T09:51:14.253Z,87.20
2018-03-14T09:53:41.422Z,86.50
2018-03-14T09:56:07.966Z,86.60
2018-03-14T09:58:35.274Z,86.80
2018-03-14T10:01:02.069Z,86.20
2018-03-14T10:03:28.673Z,87.00
2018-03-14T10:05:57.361Z,87.70
2018-03-14T10:08:24.241Z,88.10
2018-03-14T10:10:51.462Z,88.50
2018-03-14T10:13:17.962Z,88.10
2018-03-14T10:15:44.810Z,87.90
2018-03-14T10:18:11.471Z,87.00
2018-03-14T10:20:37.989Z,87.80
2018-03-14T10:23:04.908Z,86.80
2018-03-14T10:25:31.467Z,86.80
2018-03-14T10:27:59.183Z,86.90
2018-03-14T10:30:26.415Z,86.10
2018-03-14T10:32:52.960Z,85.90
2018-03-14T10:35:19.514Z,86.00
2018-03-14T10:37:47.224Z,86.60
2018-03-14T10:40:13.822Z,86.50
2018-03-14T10:42:41.424Z,87.60
2018-03-14T10:45:08.032Z,87.30
2018-03-14T10:47:34.686Z,87.50
2018-03-14T10:50:01.795Z,86.70
2018-03-14T10:52:28.873Z,87.00
2018-03-14T10:54:55.535Z,86.10
2018-03-14T10:57:23.090Z,85.80
2018-03-14T10:59:49.830Z,85.40
2018-03-14T11:02:23.197Z,84.40
2018-03-14T11:04:50.263Z,84.10
2018-03-14T11:07:16.763Z,84.30
2018-03-14T11:09:43.475Z,84.50
2018-03-14T11:12:12.441Z,82.30
2018-03-14T11:14:39.190Z,80.80
2018-03-14T11:17:05.882Z,81.80
2018-03-14T11:19:32.407Z,81.90
2018-03-14T11:22:00.068Z,80.80
2018-03-14T11:24:26.571Z,80.60
2018-03-14T11:26:55.090Z,81.30
2018-03-14T11:29:21.672Z,81.70
2018-03-14T11:31:48.304Z,82.80
2018-03-14T11:34:16.536Z,81.20
2018-03-14T11:36:43.126Z,81.20
2018-03-14T11:39:09.926Z,82.20
2018-03-14T11:41:37.353Z,82.60
2018-03-14T11:44:04.154Z,82.50
2018-03-14T11:46:30.772Z,81.10
2018-03-14T11:48:57.387Z,81.20
2018-03-14T11:51:24.009Z,81.60
2018-03-14T11:53:51.273Z,80.40
2018-03-14T11:56:18.757Z,81.40
2018-03-14T11:58:46.473Z,81.40
2018-03-14T12:01:13.086Z,82.00
2018-03-14T12:03:39.648Z,81.00
2018-03-14T12:06:06.296Z,81.40
2018-03-14T12:08:32.993Z,81.80
2018-03-14T12:11:00.291Z,81.40
2018-03-14T12:13:26.834Z,82.90
2018-03-14T12:15:53.522Z,80.70
2018-03-14T12:18:21.261Z,81.10
2018-03-14T12:20:48.350Z,80.20
2018-03-14T12:23:15.893Z,80.80
2018-03-14T12:25:42.458Z,80.40
2018-03-14T12:28:08.938Z,79.90
2018-03-14T12:30:35.562Z,79.90
2018-03-14T12:33:02.111Z,80.20
2018-03-14T12:35:28.645Z,81.90
2018-03-14T12:37:56.083Z,81.30
2018-03-14T12:40:22.729Z,80.30
2018-03-14T12:42:49.937Z,79.80
2018-03-14T12:45:16.419Z,79.70
2018-03-14T12:47:43.399Z,79.10
2018-03-14T12:50:09.980Z,80.10
2018-03-14T12:52:36.549Z,80.60
2018-03-14T12:55:03.198Z,80.70
2018-03-14T12:57:29.878Z,79.90
2018-03-14T12:59:56.444Z,79.10
2018-03-14T13:02:23.044Z,80.00
2018-03-14T13:04:49.491Z,79.80
2018-03-14T13:07:16.089Z,78.50
2018-03-14T13:09:42.834Z,79.70
2018-03-14T13:12:09.938Z,79.10
2018-03-14T13:14:36.866Z,77.70
2018-03-14T13:17:03.733Z,77.60
2018-03-14T13:19:30.251Z,77.50
2018-03-14T13:21:56.996Z,77.90
2018-03-14T13:24:24.022Z,77.90
2018-03-14T13:26:50.513Z,77.60
2018-03-14T13:29:17.105Z,78.20
2018-03-14T13:31:43.720Z,78.90
2018-03-14T13:34:12.172Z,80.20
2018-03-14T13:36:39.377Z,79.60
2018-03-14T13:39:06.141Z,78.30
2018-03-14T13:41:32.684Z,79.40
2018-03-14T13:43:59.394Z,79.50
2018-03-14T13:46:27.218Z,77.80
2018-03-14T13:48:53.817Z,77.70
2018-03-14T13:51:20.551Z,77.80
2018-03-14T13:53:48.265Z,78.70
2018-03-14T13:56:16.626Z,79.00
2018-03-14T13:58:43.456Z,79.00
2018-03-14T14:01:10.536Z,78.50
2018-03-14T14:03:38.026Z,78.30
2018-03-14T14:06:06.385Z,78.50
2018-03-14T14:08:32.921Z,78.50
2018-03-14T14:11:00.641Z,79.00
2018-03-14T14:13:27.270Z,78.80
2018-03-14T14:15:54.662Z,79.10
2018-03-14T14:18:21.141Z,79.20
2018-03-14T14:20:47.678Z,80.20
2018-03-14T14:23:15.062Z,79.60
2018-03-14T14:25:42.288Z,79.70
2018-03-14T14:28:08.868Z,79.70
2018-03-14T14:30:35.685Z,79.20
2018-03-14T14:33:03.035Z,78.80
2018-03-14T14:35:29.964Z,79.40
2018-03-14T14:37:57.229Z,79.20
2018-03-14T14:40:23.910Z,79.20
2018-03-14T14:42:50.472Z,78.70
2018-03-14T14:45:17.109Z,79.30
2018-03-14T14:47:44.705Z,78.80
2018-03-14T14:50:11.167Z,79.80
2018-03-14T14:52:37.775Z,80.80
2018-03-14T14:55:05.183Z,79.60
2018-03-14T14:57:32.039Z,80.70
2018-03-14T14:59:58.640Z,80.40
2018-03-14T15:02:25.149Z,80.80
2018-03-14T15:04:51.982Z,81.10
2018-03-14T15:07:19.389Z,80.40
2018-03-14T15:09:53.523Z,80.80
2018-03-14T15:12:20.081Z,80.80
2018-03-14T15:14:47.901Z,81.50
2018-03-14T15:17:14.487Z,81.50
2018-03-14T15:19:42.028Z,81.20
2018-03-14T15:22:08.952Z,81.30
2018-03-14T15:24:35.503Z,81.20
2018-03-14T15:27:02.098Z,81.60
2018-03-14T15:29:29.185Z,81.80
2018-03-14T15:31:56.993Z,81.40
2018-03-14T15:34:23.576Z,81.00
2018-03-14T15:36:50.097Z,80.80
2018-03-14T15:39:16.704Z,81.70
2018-03-14T15:41:43.308Z,81.40
2018-03-14T15:44:10.005Z,81.70
2018-03-14T15:46:36.488Z,80.80
2018-03-14T15:49:03.141Z,81.50
2018-03-14T15:51:30.445Z,81.20
2018-03-14T15:53:58.003Z,82.70
2018-03-14T15:56:27.220Z,82.60
2018-03-14T15:58:55.696Z,82.70
2018-03-14T16:01:22.677Z,82.50
2018-03-14T16:03:50.051Z,83.40
2018-03-14T16:06:16.593Z,83.30
2018-03-14T16:08:43.949Z,84.00
2018-03-14T16:11:10.504Z,84.30
2018-03-14T16:13:36.997Z,83.80
2018-03-14T16:16:03.649Z,83.30
2018-03-14T16:18:30.204Z,82.50
2018-03-14T16:20:56.671Z,83.50
2018-03-14T16:23:24.041Z,84.00
2018-03-14T16:25:50.696Z,83.90
2018-03-14T16:28:17.654Z,84.60
2018-03-14T16:30:45.472Z,83.60
2018-03-14T16:33:12.783Z,85.00
2018-03-14T16:35:39.314Z,85.00
2018-03-14T16:38:05.961Z,84.70
2018-03-14T16:40:32.980Z,85.50
2018-03-14T16:43:00.161Z,85.10
2018-03-14T16:45:27.196Z,85.60
2018-03-14T16:47:53.716Z,85.10
2018-03-14T16:50:20.495Z,85.20
2018-03-14T16:52:47.001Z,85.30
2018-03-14T16:55:13.634Z,85.30
2018-03-14T16:57:40.076Z,85.50
2018-03-14T17:00:06.750Z,85.60
2018-03-14T17:02:33.310Z,86.40
2018-03-14T17:04:59.854Z,86.20
2018-03-14T17:07:27.244Z,86.30
2018-03-14T17:09:53.795Z,87.00
2018-03-14T17:12:20.296Z,86.90
2018-03-14T17:14:47.673Z,87.20
2018-03-14T17:17:15.009Z,87.20
2018-03-14T17:19:41.537Z,87.20
2018-03-14T17:22:08.190Z,86.50
2018-03-14T17:24:34.927Z,87.10
2018-03-14T17:27:01.409Z,87.00
2018-03-14T17:29:27.935Z,87.00
2018-03-14T17:31:55.387Z,86.70
2018-03-14T17:34:21.961Z,86.60
2018-03-14T17:36:48.428Z,87.00
2018-03-14T17:39:14.992Z,87.00
2018-03-14T17:41:42.194Z,86.90
2018-03-14T17:44:09.697Z,85.30
2018-03-14T17:46:37.037Z,85.90
2018-03-14T17:49:03.538Z,85.70
2018-03-14T17:51:31.154Z,85.70
2018-03-14T17:53:58.759Z,85.70
2018-03-14T17:56:26.076Z,86.00
2018-03-14T17:58:52.657Z,86.00
2018-03-14T18:01:19.890Z,85.50
2018-03-14T18:03:46.370Z,85.40
2018-03-14T18:06:12.792Z,85.90
2018-03-14T18:08:39.217Z,85.40
2018-03-14T18:11:05.801Z,84.50
2018-03-14T18:13:32.394Z,84.50
2018-03-14T18:15:58.849Z,85.60
2018-03-14T18:18:25.285Z,86.40
2018-03-14T18:20:51.766Z,86.40
2018-03-14T18:23:18.363Z,86.40
2018-03-14T18:25:45.621Z,85.70
2018-03-14T18:28:12.126Z,86.00
2018-03-14T18:30:39.382Z,87.20
2018-03-14T18:33:07.219Z,87.20
2018-03-14T18:35:34.443Z,86.60
2018-03-14T18:38:00.958Z,86.80
2018-03-14T18:40:28.219Z,87.10
2018-03-14T18:42:55.669Z,87.10
2018-03-14T18:45:22.221Z,87.70
2018-03-14T18:47:48.713Z,88.00
2018-03-14T18:50:15.218Z,87.90
2018-03-14T18:52:41.668Z,88.30
2018-03-14T18:55:08.965Z,87.80
2018-03-14T18:57:35.719Z,87.70
2018-03-14T19:00:02.327Z,87.80
2018-03-14T19:02:28.848Z,88.10
2018-03-14T19:04:55.344Z,88.30
2018-03-14T19:07:21.899Z,88.60
2018-03-14T19:09:49.124Z,89.60
2018-03-14T19:12:15.770Z,89.50
2018-03-14T19:14:42.188Z,89.50
2018-03-14T19:17:09.372Z,89.00
2018-03-14T19:19:35.882Z,88.90
2018-03-14T19:22:02.572Z,88.90
2018-03-14T19:24:29.896Z,88.30
2018-03-14T19:26:56.441Z,88.40
2018-03-14T19:29:28.819Z,88.10
2018-03-14T19:31:56.025Z,89.20
2018-03-14T19:34:22.446Z,89.30
2018-03-14T19:36:48.913Z,88.80
2018-03-14T19:39:15.438Z,88.70
2018-03-14T19:41:41.891Z,89.40
2018-03-14T19:44:08.393Z,89.50
2018-03-14T19:46:34.878Z,89.30
2018-03-14T19:49:02.189Z,90.00
2018-03-14T19:51:28.729Z,90.00
2018-03-14T19:53:55.293Z,90.00
2018-03-14T19:56:21.999Z,90.10
2018-03-14T19:58:48.547Z,90.20
2018-03-14T20:01:15.055Z,90.20
2018-03-14T20:03:41.642Z,90.60
2018-03-14T20:06:08.944Z,90.90
2018-03-14T20:08:35.395Z,90.80
2018-03-14T20:11:02.710Z,91.00
2018-03-14T20:13:29.283Z,91.00
2018-03-14T20:15:55.758Z,91.20
2018-03-14T20:18:22.362Z,91.30
2018-03-14T20:20:48.947Z,91.10
2018-03-14T20:23:15.506Z,90.80
2018-03-14T20:25:42.001Z,91.10
2018-03-14T20:28:09.292Z,91.30
2018-03-14T20:30:35.895Z,91.20
2018-03-14T20:33:02.416Z,91.40
2018-03-14T20:35:29.037Z,91.50
2018-03-14T20:37:55.519Z,92.00
2018-03-14T20:40:22.184Z,92.40
2018-03-14T20:42:48.710Z,92.20
2018-03-14T20:45:15.101Z,92.30
2018-03-14T20:47:41.706Z,92.30
2018-03-14T20:50:08.128Z,92.40
2018-03-14T20:52:34.762Z,92.40
2018-03-14T20:55:01.341Z,92.40
2018-03-14T20:57:27.831Z,92.30
2018-03-14T20:59:54.255Z,92.60
2018-03-14T21:02:20.761Z,93.10
2018-03-14T21:04:47.975Z,92.80
2018-03-14T21:07:14.448Z,92.80
2018-03-14T21:09:41.754Z,93.10
2018-03-14T21:12:08.205Z,92.90
2018-03-14T21:14:34.813Z,93.00
2018-03-14T21:17:01.296Z,93.00
2018-03-14T21:19:28.551Z,93.20
2018-03-14T21:21:55.152Z,93.10
2018-03-14T21:24:21.698Z,93.00
2018-03-14T21:26:48.164Z,93.50
2018-03-14T21:29:15.554Z,93.20
2018-03-14T21:31:42.145Z,93.20
2018-03-14T21:34:08.608Z,93.40
2018-03-14T21:36:35.197Z,93.40
2018-03-14T21:39:01.660Z,93.40
2018-03-14T21:41:28.205Z,93.50
2018-03-14T21:43:54.703Z,93.70
2018-03-14T21:46:21.381Z,93.70
2018-03-14T21:48:47.875Z,93.70
2018-03-14T21:51:15.148Z,93.90
2018-03-14T21:53:42.350Z,94.10
2018-03-14T21:56:08.823Z,94.30
2018-03-14T21:58:35.389Z,94.20
2018-03-14T22:01:02.588Z,94.00
2018-03-14T22:03:28.997Z,94.00
2018-03-14T22:05:56.352Z,94.00
2018-03-14T22:08:23.779Z,94.20
2018-03-14T22:10:50.682Z,94.20
2018-03-14T22:13:17.228Z,94.10
2018-03-14T22:15:44.593Z,94.30
2018-03-14T22:18:12.469Z,94.30
2018-03-14T22:20:39.865Z,94.60
2018-03-14T22:23:06.292Z,94.20
2018-03-14T22:25:32.849Z,94.50
2018-03-14T22:28:00.051Z,94.50
2018-03-14T22:30:27.220Z,94.50
2018-03-14T22:32:53.649Z,94.50
2018-03-14T22:35:20.110Z,94.60
2018-03-14T22:37:47.257Z,94.50
2018-03-14T22:40:13.845Z,94.50
2018-03-14T22:42:40.319Z,94.50
2018-03-14T22:45:06.821Z,94.40
2018-03-14T22:47:33.301Z,94.50
2018-03-14T22:49:59.852Z,94.50
2018-03-14T22:52:26.282Z,94.40
2018-03-14T22:54:52.717Z,94.50
2018-03-14T22:57:19.290Z,94.50
2018-03-14T22:59:45.711Z,94.60
2018-03-14T23:02:12.153Z,94.70
2018-03-14T23:04:38.688Z,94.80
2018-03-14T23:07:05.109Z,94.80
2018-03-14T23:09:31.764Z,94.80
2018-03-14T23:11:58.269Z,94.80
2018-03-14T23:14:24.789Z,94.90
2018-03-14T23:16:51.984Z,95.30
2018-03-14T23:19:19.156Z,95.50
2018-03-14T23:21:46.333Z,95.30
2018-03-14T23:24:12.881Z,95.30
2018-03-14T23:26:40.067Z,95.40
2018-03-14T23:29:06.475Z,95.40
2018-03-14T23:31:32.889Z,95.40
2018-03-14T23:34:00.925Z,95.40
2018-03-14T23:36:27.435Z,95.40
2018-03-14T23:38:53.842Z,95.30
2018-03-14T23:41:21.058Z,95.20
2018-03-14T23:43:47.567Z,95.20
2018-03-14T23:46:14.875Z,95.10
2018-03-14T23:48:41.418Z,94.90
2018-03-14T23:51:08.625Z,95.00
2018-03-14T23:53:35.106Z,94.90
2018-03-14T23:56:01.638Z,95.00
2018-03-14T23:58:28.061Z,94.90
